Time;durP1;ratioP1;P1;durP2;ratioP2;P2;SDS_P1;SDS_P2;PMS_P1;PMS_P2;Temp;Humidity;BMP_temperature;BMP_pressure;BME280_temperature;BME280_humidity;BME280_pressure;Samples;Min_cycle;Max_cycle;Signal;HPM_P1;HPM_P2
2023/09/07 00:01:52;;;;;;;37.47;9.23;;;;;;;;;;5091402;28;20024;-31
2023/09/07 00:04:21;;;;;;;64.78;14.60;;;;;;;;;;5091784;28;20491;-34
2023/09/07 00:06:49;;;;;;;47.95;13.32;;;;;;;;;;5085394;28;20488;-32
2023/09/07 00:09:18;;;;;;;48.83;12.65;;;;;;;;;;5104277;28;20039;-31
2023/09/07 00:11:46;;;;;;;55.65;12.93;;;;;;;;;;5092593;28;20054;-38
2023/09/07 00:14:13;;;;;;;54.13;12.93;;;;;;;;;;5088925;28;20563;-33
2023/09/07 00:16:40;;;;;;;49.03;11.95;;;;;;;;;;5092941;28;20470;-32
2023/09/07 00:19:07;;;;;;;48.92;10.82;;;;;;;;;;5092748;28;20043;-31
2023/09/07 00:21:34;;;;;;;55.13;11.55;;;;;;;;;;5092789;28;20032;-32
2023/09/07 00:24:05;;;;;;;43.53;11.20;;;;;;;;;;5092850;28;20059;-31
2023/09/07 00:26:32;;;;;;;43.72;10.52;;;;;;;;;;5092535;28;20030;-33
2023/09/07 00:28:59;;;;;;;37.42;9.65;;;;;;;;;;5092770;28;20756;-33
2023/09/07 00:31:26;;;;;;;37.88;9.45;;;;;;;;;;5092403;28;20387;-32
2023/09/07 00:33:53;;;;;;;36.03;9.75;;;;;;;;;;5092202;28;20032;-31
2023/09/07 00:36:20;;;;;;;37.30;9.18;;;;;;;;;;5092614;28;20028;-32
2023/09/07 00:38:47;;;;;;;34.92;9.40;;;;;;;;;;5092523;28;20024;-31
2023/09/07 00:41:14;;;;;;;27.73;8.07;;;;;;;;;;5091629;28;20032;-34
2023/09/07 00:43:41;;;;;;;28.60;7.15;;;;;;;;;;5092265;28;20024;-34
2023/09/07 00:46:08;;;;;;;27.77;7.72;;;;;;;;;;5092077;28;20035;-32
2023/09/07 00:48:36;;;;;;;35.55;8.32;;;;;;;;;;5091927;28;20089;-31
2023/09/07 00:51:03;;;;;;;28.85;6.75;;;;;;;;;;5091069;28;20055;-32
2023/09/07 00:53:30;;;;;;;29.73;6.70;;;;;;;;;;5091337;28;20070;-29
2023/09/07 00:55:58;;;;;;;26.23;6.68;;;;;;;;;;5091840;28;20043;-31
2023/09/07 00:58:25;;;;;;;32.10;6.57;;;;;;;;;;5090801;28;20030;-30
2023/09/07 01:00:52;;;;;;;23.00;7.22;;;;;;;;;;5091629;28;20070;-30
2023/09/07 01:03:19;;;;;;;20.55;6.78;;;;;;;;;;5091602;28;20028;-30
2023/09/07 01:05:53;;;;;;;26.08;6.68;;;;;;;;;;5091763;28;20429;-29
2023/09/07 01:08:25;;;;;;;19.60;6.60;;;;;;;;;;5091398;28;20089;-29
2023/09/07 01:10:53;;;;;;;27.48;7.30;;;;;;;;;;5091569;28;20452;-30
2023/09/07 01:13:20;;;;;;;25.08;6.55;;;;;;;;;;5091785;28;20502;-33
2023/09/07 01:15:48;;;;;;;21.88;6.10;;;;;;;;;;5091275;28;20036;-33
2023/09/07 01:18:15;;;;;;;15.63;5.35;;;;;;;;;;5091447;28;20063;-30
2023/09/07 01:20:45;;;;;;;24.60;5.55;;;;;;;;;;5088456;28;20501;-33
2023/09/07 01:23:13;;;;;;;23.65;5.93;;;;;;;;;;5091041;28;20059;-32
2023/09/07 01:25:41;;;;;;;23.67;5.80;;;;;;;;;;5090732;28;20040;-33
2023/09/07 01:28:09;;;;;;;21.90;5.93;;;;;;;;;;5090523;28;20513;-36
2023/09/07 01:30:38;;;;;;;21.95;5.15;;;;;;;;;;5090499;28;20070;-34
2023/09/07 01:33:05;;;;;;;21.52;4.75;;;;;;;;;;5090509;28;20031;-30
2023/09/07 01:35:33;;;;;;;17.13;4.85;;;;;;;;;;5090976;28;20109;-33
2023/09/07 01:38:00;;;;;;;18.65;4.80;;;;;;;;;;5089946;28;20059;-35
2023/09/07 01:40:27;;;;;;;13.43;4.78;;;;;;;;;;5083291;28;20502;-32
2023/09/07 01:42:55;;;;;;;18.63;5.30;;;;;;;;;;5084934;28;20024;-30
2023/09/07 01:45:23;;;;;;;16.05;5.03;;;;;;;;;;5084055;28;20376;-34
2023/09/07 01:47:51;;;;;;;14.48;4.05;;;;;;;;;;5070612;28;20529;-30
2023/09/07 01:50:19;;;;;;;16.85;4.30;;;;;;;;;;5090562;28;20397;-31
2023/09/07 01:52:49;;;;;;;14.50;4.07;;;;;;;;;;5089882;28;20440;-30
2023/09/07 01:55:16;;;;;;;16.33;4.50;;;;;;;;;;5090830;28;20035;-31
2023/09/07 01:57:43;;;;;;;13.48;4.13;;;;;;;;;;5090515;28;20073;-31
2023/09/07 02:00:11;;;;;;;11.10;3.70;;;;;;;;;;5090323;28;20070;-31
2023/09/07 02:02:38;;;;;;;12.13;3.58;;;;;;;;;;5090776;28;20028;-30
2023/09/07 02:05:05;;;;;;;15.27;3.75;;;;;;;;;;5090620;28;20485;-30
2023/09/07 02:07:33;;;;;;;10.18;3.45;;;;;;;;;;5090576;28;20035;-30
2023/09/07 02:10:00;;;;;;;17.48;3.65;;;;;;;;;;5090931;28;20494;-31
2023/09/07 02:12:27;;;;;;;12.98;3.50;;;;;;;;;;5091418;28;20024;-30
2023/09/07 02:14:54;;;;;;;13.73;3.95;;;;;;;;;;5091242;28;20435;-31
2023/09/07 02:17:21;;;;;;;9.05;3.42;;;;;;;;;;5091147;28;20095;-31
2023/09/07 02:19:48;;;;;;;12.95;3.55;;;;;;;;;;5091225;28;20024;-31
2023/09/07 02:22:15;;;;;;;16.33;3.67;;;;;;;;;;5091336;28;20028;-31
2023/09/07 02:24:42;;;;;;;8.05;2.80;;;;;;;;;;5091128;28;20386;-30
2023/09/07 02:27:09;;;;;;;11.45;3.17;;;;;;;;;;5091246;28;20036;-33
2023/09/07 02:29:36;;;;;;;10.70;3.35;;;;;;;;;;5091116;28;20032;-33
2023/09/07 02:32:04;;;;;;;9.70;3.13;;;;;;;;;;5091150;28;20024;-31
2023/09/07 02:34:31;;;;;;;7.38;3.10;;;;;;;;;;5090594;28;20555;-30
2023/09/07 02:36:58;;;;;;;8.27;2.50;;;;;;;;;;5091270;28;20115;-31
2023/09/07 02:39:26;;;;;;;9.25;2.75;;;;;;;;;;5091174;28;20043;-30
2023/09/07 02:41:53;;;;;;;7.65;2.47;;;;;;;;;;5090932;28;20039;-30
2023/09/07 02:44:20;;;;;;;11.95;2.67;;;;;;;;;;5091106;28;20032;-29
2023/09/07 02:46:47;;;;;;;9.95;2.88;;;;;;;;;;5090783;28;20047;-30
2023/09/07 02:49:14;;;;;;;9.38;2.80;;;;;;;;;;5072860;28;20814;-29
2023/09/07 02:51:41;;;;;;;7.97;2.90;;;;;;;;;;5090972;28;20064;-29
2023/09/07 02:54:09;;;;;;;9.52;2.70;;;;;;;;;;5090981;28;20548;-31
2023/09/07 02:56:36;;;;;;;6.78;2.80;;;;;;;;;;5090954;28;20549;-33
2023/09/07 02:59:03;;;;;;;7.55;2.60;;;;;;;;;;5090872;28;20028;-32
2023/09/07 03:01:30;;;;;;;7.53;2.28;;;;;;;;;;5090783;28;20039;-30
2023/09/07 03:03:57;;;;;;;8.43;2.50;;;;;;;;;;5093224;28;20020;-30
2023/09/07 03:06:24;;;;;;;8.60;2.63;;;;;;;;;;5094069;28;20047;-31
2023/09/07 03:08:52;;;;;;;4.88;2.10;;;;;;;;;;5080260;28;20040;-30
2023/09/07 03:11:19;;;;;;;4.35;1.90;;;;;;;;;;5074117;28;20028;-31
2023/09/07 03:13:46;;;;;;;6.85;2.13;;;;;;;;;;5074019;28;20032;-30
2023/09/07 03:16:13;;;;;;;7.35;2.25;;;;;;;;;;5073990;28;20031;-30
2023/09/07 03:18:40;;;;;;;6.28;2.03;;;;;;;;;;5074010;28;20044;-32
2023/09/07 03:21:07;;;;;;;7.43;2.10;;;;;;;;;;5074080;28;20037;-30
2023/09/07 03:23:34;;;;;;;5.47;2.13;;;;;;;;;;5073851;28;20367;-30
2023/09/07 03:26:01;;;;;;;7.30;2.00;;;;;;;;;;5073950;28;20044;-30
2023/09/07 03:28:28;;;;;;;7.95;2.13;;;;;;;;;;5073915;28;20032;-31
2023/09/07 03:30:56;;;;;;;6.00;2.05;;;;;;;;;;5073842;28;20037;-32
2023/09/07 03:33:23;;;;;;;6.68;2.00;;;;;;;;;;5073715;28;20032;-33
2023/09/07 03:35:51;;;;;;;5.22;1.90;;;;;;;;;;5073719;28;20159;-32
2023/09/07 03:38:18;;;;;;;7.97;1.98;;;;;;;;;;5073687;28;20097;-30
2023/09/07 03:40:45;;;;;;;4.68;1.55;;;;;;;;;;5073711;28;20032;-30
2023/09/07 03:43:12;;;;;;;5.20;1.60;;;;;;;;;;5073710;28;20039;-30
2023/09/07 03:45:39;;;;;;;4.40;1.90;;;;;;;;;;5073587;28;20039;-30
2023/09/07 03:48:06;;;;;;;4.03;1.70;;;;;;;;;;5073331;28;20044;-30
2023/09/07 03:50:33;;;;;;;3.75;1.88;;;;;;;;;;5073562;28;20036;-32
2023/09/07 03:53:00;;;;;;;8.15;2.22;;;;;;;;;;5073515;28;20027;-31
2023/09/07 03:55:27;;;;;;;4.53;1.70;;;;;;;;;;5073474;28;20036;-30
2023/09/07 03:57:54;;;;;;;4.93;1.85;;;;;;;;;;5073538;28;20036;-32
2023/09/07 04:00:23;;;;;;;6.38;2.40;;;;;;;;;;5073223;28;20040;-32
2023/09/07 04:02:50;;;;;;;7.68;1.80;;;;;;;;;;5073215;28;20128;-31
2023/09/07 04:05:18;;;;;;;4.50;1.70;;;;;;;;;;5073346;28;20040;-32
2023/09/07 04:07:45;;;;;;;3.63;1.67;;;;;;;;;;5073211;28;20556;-33
2023/09/07 04:10:15;;;;;;;4.63;1.42;;;;;;;;;;5072999;28;20039;-32
2023/09/07 04:12:42;;;;;;;4.38;1.60;;;;;;;;;;5073055;28;20037;-31
2023/09/07 04:15:10;;;;;;;6.03;2.20;;;;;;;;;;5072328;28;20508;-32
2023/09/07 04:17:40;;;;;;;5.60;2.08;;;;;;;;;;5073067;28;20035;-31
2023/09/07 04:20:08;;;;;;;5.38;2.08;;;;;;;;;;5072875;28;20474;-34
2023/09/07 04:22:35;;;;;;;5.65;1.63;;;;;;;;;;5072990;28;20059;-31
2023/09/07 04:25:02;;;;;;;3.97;1.65;;;;;;;;;;5072883;28;20039;-30
2023/09/07 04:27:29;;;;;;;4.43;1.60;;;;;;;;;;5072724;28;20040;-33
2023/09/07 04:29:56;;;;;;;5.15;1.63;;;;;;;;;;5072568;28;20036;-30
2023/09/07 04:32:24;;;;;;;6.47;1.52;;;;;;;;;;5072674;28;20040;-31
2023/09/07 04:34:55;;;;;;;4.40;1.33;;;;;;;;;;5072680;28;20036;-31
2023/09/07 04:37:22;;;;;;;2.78;1.30;;;;;;;;;;5072563;28;20040;-30
2023/09/07 04:39:52;;;;;;;3.80;1.50;;;;;;;;;;5072581;28;20111;-30
2023/09/07 04:42:19;;;;;;;5.25;1.20;;;;;;;;;;5072593;28;20032;-30
2023/09/07 04:44:47;;;;;;;2.80;1.25;;;;;;;;;;5072535;28;20488;-33
2023/09/07 04:47:15;;;;;;;2.72;1.52;;;;;;;;;;5072140;28;20135;-31
2023/09/07 04:49:42;;;;;;;4.03;1.33;;;;;;;;;;5072169;28;20039;-30
2023/09/07 04:52:09;;;;;;;4.53;1.67;;;;;;;;;;5072436;28;20031;-30
2023/09/07 04:54:36;;;;;;;2.58;1.25;;;;;;;;;;5072422;28;20047;-31
2023/09/07 04:57:03;;;;;;;3.67;1.55;;;;;;;;;;5054296;28;20422;-30
2023/09/07 04:59:30;;;;;;;4.07;1.25;;;;;;;;;;5072163;28;20126;-30
2023/09/07 05:02:01;;;;;;;3.20;1.40;;;;;;;;;;5072077;28;20028;-31
2023/09/07 05:04:29;;;;;;;3.47;1.20;;;;;;;;;;5071984;28;20032;-32
2023/09/07 05:06:57;;;;;;;4.25;1.33;;;;;;;;;;5054112;28;20044;-30
2023/09/07 05:09:25;;;;;;;2.95;1.17;;;;;;;;;;5072030;28;20055;-30
2023/09/07 05:11:52;;;;;;;2.38;0.90;;;;;;;;;;5071917;28;20036;-30
2023/09/07 05:14:19;;;;;;;2.55;1.13;;;;;;;;;;5071959;28;20029;-30
2023/09/07 05:16:46;;;;;;;2.58;1.10;;;;;;;;;;5072033;28;20020;-33
2023/09/07 05:19:14;;;;;;;3.33;1.27;;;;;;;;;;5071787;28;20446;-31
2023/09/07 05:21:41;;;;;;;2.78;1.23;;;;;;;;;;5071939;28;20032;-31
2023/09/07 05:24:08;;;;;;;3.42;1.30;;;;;;;;;;5071891;28;20031;-30
2023/09/07 05:26:35;;;;;;;4.05;1.20;;;;;;;;;;5071481;28;20060;-30
2023/09/07 05:29:02;;;;;;;3.47;1.25;;;;;;;;;;5071663;28;20047;-32
2023/09/07 05:31:29;;;;;;;2.47;1.08;;;;;;;;;;5071848;28;20111;-32
2023/09/07 05:33:56;;;;;;;2.20;1.05;;;;;;;;;;5071802;28;20037;-33
2023/09/07 05:36:23;;;;;;;3.65;1.10;;;;;;;;;;5071863;28;20359;-31
2023/09/07 05:38:50;;;;;;;3.35;1.30;;;;;;;;;;5071445;28;20024;-32
2023/09/07 05:41:17;;;;;;;1.98;1.15;;;;;;;;;;5071570;28;20071;-31
2023/09/07 05:43:44;;;;;;;4.78;1.20;;;;;;;;;;5071670;28;20082;-31
2023/09/07 05:46:11;;;;;;;3.38;1.20;;;;;;;;;;5071485;28;20032;-33
2023/09/07 05:48:38;;;;;;;2.08;1.00;;;;;;;;;;5071416;28;20040;-31
2023/09/07 05:51:05;;;;;;;2.30;0.90;;;;;;;;;;5071498;28;20025;-31
2023/09/07 05:53:32;;;;;;;3.33;1.10;;;;;;;;;;5071538;28;20025;-31
2023/09/07 05:55:59;;;;;;;2.75;1.08;;;;;;;;;;5071569;28;20028;-30
2023/09/07 05:58:27;;;;;;;3.22;1.33;;;;;;;;;;5071520;28;20112;-31
2023/09/07 06:00:54;;;;;;;2.15;0.95;;;;;;;;;;5071360;28;20033;-30
2023/09/07 06:03:21;;;;;;;2.47;0.93;;;;;;;;;;5086569;28;20496;-30
2023/09/07 06:05:48;;;;;;;1.70;0.90;;;;;;;;;;5091647;28;20116;-30
2023/09/07 06:08:15;;;;;;;2.13;1.00;;;;;;;;;;5091550;28;20036;-30
2023/09/07 06:10:42;;;;;;;2.95;1.02;;;;;;;;;;5091543;28;20028;-30
2023/09/07 06:13:09;;;;;;;2.13;0.93;;;;;;;;;;5091629;28;20032;-30
2023/09/07 06:15:36;;;;;;;2.67;1.10;;;;;;;;;;5091289;28;20461;-32
2023/09/07 06:18:03;;;;;;;2.95;0.82;;;;;;;;;;5091461;28;20081;-30
2023/09/07 06:20:30;;;;;;;3.65;0.90;;;;;;;;;;5091278;28;20036;-30
2023/09/07 06:22:57;;;;;;;12.95;2.75;;;;;;;;;;5091255;28;20389;-30
2023/09/07 06:25:24;;;;;;;3.50;1.20;;;;;;;;;;5091237;28;20099;-30
2023/09/07 06:27:51;;;;;;;1.77;0.82;;;;;;;;;;5091406;28;20064;-31
2023/09/07 06:30:18;;;;;;;2.30;1.10;;;;;;;;;;5091281;28;20020;-30
2023/09/07 06:32:45;;;;;;;5.22;0.88;;;;;;;;;;5091416;28;20028;-30
2023/09/07 06:35:12;;;;;;;5.28;1.00;;;;;;;;;;5091006;28;20546;-30
2023/09/07 06:37:40;;;;;;;2.63;0.90;;;;;;;;;;5091671;28;20032;-30
2023/09/07 06:40:09;;;;;;;12.02;1.20;;;;;;;;;;5095013;28;20032;-30
2023/09/07 06:42:36;;;;;;;3.15;1.17;;;;;;;;;;5094969;28;20040;-30
2023/09/07 06:45:03;;;;;;;2.70;0.95;;;;;;;;;;5095122;28;20470;-32
2023/09/07 06:47:30;;;;;;;1.85;0.98;;;;;;;;;;5083043;28;20047;-30
2023/09/07 06:49:57;;;;;;;1.42;0.90;;;;;;;;;;5074710;28;20029;-30
2023/09/07 06:52:24;;;;;;;2.53;0.85;;;;;;;;;;5074615;28;20024;-31
2023/09/07 06:54:55;;;;;;;1.98;0.88;;;;;;;;;;5074729;28;20033;-35
2023/09/07 06:57:22;;;;;;;2.38;0.85;;;;;;;;;;5074437;28;20028;-33
2023/09/07 06:59:49;;;;;;;1.92;0.98;;;;;;;;;;5074365;28;20024;-30
2023/09/07 07:02:16;;;;;;;2.10;1.15;;;;;;;;;;5074542;28;20021;-31
2023/09/07 07:04:45;;;;;;;1.17;0.77;;;;;;;;;;5074494;28;20059;-32
2023/09/07 07:07:12;;;;;;;2.30;1.13;;;;;;;;;;5074210;28;20052;-32
2023/09/07 07:09:39;;;;;;;2.90;0.98;;;;;;;;;;5074310;28;20486;-32
2023/09/07 07:12:06;;;;;;;2.00;1.00;;;;;;;;;;5074237;28;20028;-31
2023/09/07 07:14:33;;;;;;;1.50;0.98;;;;;;;;;;5074339;28;20027;-32
2023/09/07 07:17:01;;;;;;;1.60;0.90;;;;;;;;;;5074285;28;20041;-31
2023/09/07 07:19:28;;;;;;;1.73;1.00;;;;;;;;;;5074042;28;20036;-31
2023/09/07 07:21:55;;;;;;;1.67;0.80;;;;;;;;;;5073905;28;20451;-31
2023/09/07 07:24:22;;;;;;;1.55;0.70;;;;;;;;;;5074259;28;20036;-31
2023/09/07 07:26:49;;;;;;;2.22;0.90;;;;;;;;;;5074036;28;20032;-31
2023/09/07 07:29:16;;;;;;;1.90;0.90;;;;;;;;;;5073788;28;20044;-32
2023/09/07 07:31:43;;;;;;;1.75;0.80;;;;;;;;;;5073878;28;20047;-32
2023/09/07 07:34:10;;;;;;;3.17;0.93;;;;;;;;;;5073937;28;20025;-31
2023/09/07 07:36:37;;;;;;;2.47;0.80;;;;;;;;;;5073977;28;20047;-33
2023/09/07 07:39:06;;;;;;;1.45;0.90;;;;;;;;;;5073809;28;20680;-32
2023/09/07 07:41:33;;;;;;;2.28;0.98;;;;;;;;;;5073452;28;20028;-31
2023/09/07 07:44:00;;;;;;;2.40;0.80;;;;;;;;;;5073749;28;20025;-31
2023/09/07 07:46:28;;;;;;;1.67;0.95;;;;;;;;;;5076555;28;20048;-34
2023/09/07 07:48:54;;;;;;;2.00;1.00;;;;;;;;;;5093133;28;20047;-31
2023/09/07 07:51:21;;;;;;;2.90;1.10;;;;;;;;;;5093292;28;20028;-31
2023/09/07 07:53:48;;;;;;;1.52;0.60;;;;;;;;;;5093778;28;20028;-31
2023/09/07 07:56:16;;;;;;;1.60;0.68;;;;;;;;;;5093505;28;20040;-31
2023/09/07 07:58:44;;;;;;;2.08;0.80;;;;;;;;;;5093706;28;20115;-30
2023/09/07 08:01:15;;;;;;;3.15;0.77;;;;;;;;;;5093556;28;20032;-33
2023/09/07 08:03:43;;;;;;;2.38;0.80;;;;;;;;;;5093673;28;20059;-33
2023/09/07 08:06:10;;;;;;;4.70;0.70;;;;;;;;;;5093492;28;20063;-31
2023/09/07 08:08:37;;;;;;;2.53;0.80;;;;;;;;;;5093522;28;20556;-31
2023/09/07 08:11:05;;;;;;;1.75;0.80;;;;;;;;;;5093322;28;20036;-31
2023/09/07 08:13:36;;;;;;;1.73;0.90;;;;;;;;;;5093391;28;20033;-32
2023/09/07 08:16:03;;;;;;;1.88;0.88;;;;;;;;;;5093205;28;20081;-31
2023/09/07 08:18:32;;;;;;;2.25;0.80;;;;;;;;;;5093142;28;20452;-32
2023/09/07 08:20:59;;;;;;;1.35;0.73;;;;;;;;;;5093396;28;20032;-33
2023/09/07 08:23:26;;;;;;;2.53;0.68;;;;;;;;;;5074871;28;20038;-33
2023/09/07 08:25:54;;;;;;;0.95;0.60;;;;;;;;;;5093207;28;20028;-31
2023/09/07 08:28:22;;;;;;;0.90;0.60;;;;;;;;;;5093063;28;20094;-32
2023/09/07 08:30:58;;;;;;;1.05;0.68;;;;;;;;;;5093035;28;20028;-32
2023/09/07 08:33:28;;;;;;;1.30;0.60;;;;;;;;;;5093125;28;20032;-31
2023/09/07 08:36:00;;;;;;;2.47;0.80;;;;;;;;;;5074723;28;20028;-33
2023/09/07 08:38:27;;;;;;;1.45;0.60;;;;;;;;;;5092848;28;20031;-30
2023/09/07 08:40:55;;;;;;;2.03;0.70;;;;;;;;;;5092584;28;20024;-32
2023/09/07 08:43:23;;;;;;;1.23;0.80;;;;;;;;;;5092870;28;20116;-32
2023/09/07 08:45:59;;;;;;;2.33;0.90;;;;;;;;;;5092799;28;20039;-31
2023/09/07 08:48:30;;;;;;;2.05;0.90;;;;;;;;;;5092444;28;20054;-33
2023/09/07 08:50:58;;;;;;;1.13;0.50;;;;;;;;;;5092597;28;20035;-32
2023/09/07 08:53:25;;;;;;;3.35;0.70;;;;;;;;;;5092553;28;20039;-31
2023/09/07 08:55:52;;;;;;;0.70;0.50;;;;;;;;;;5092493;28;20095;-32
2023/09/07 08:58:20;;;;;;;1.08;0.60;;;;;;;;;;5092568;28;20031;-31
2023/09/07 09:00:47;;;;;;;1.60;0.70;;;;;;;;;;5092146;28;20020;-33
2023/09/07 09:03:14;;;;;;;0.93;0.55;;;;;;;;;;5092142;28;20067;-31
2023/09/07 09:05:41;;;;;;;2.35;0.60;;;;;;;;;;5092388;28;20020;-31
2023/09/07 09:08:08;;;;;;;1.15;0.60;;;;;;;;;;5092292;28;20119;-31
2023/09/07 09:10:35;;;;;;;0.82;0.40;;;;;;;;;;5091596;28;20469;-30
2023/09/07 09:13:02;;;;;;;1.33;0.63;;;;;;;;;;5089468;28;20119;-30
2023/09/07 09:15:29;;;;;;;1.40;0.63;;;;;;;;;;5091627;28;20028;-30
2023/09/07 09:17:56;;;;;;;1.13;0.60;;;;;;;;;;5091539;28;20036;-33
2023/09/07 09:20:27;;;;;;;3.03;0.50;;;;;;;;;;5091392;28;20028;-33
2023/09/07 09:22:54;;;;;;;1.35;0.52;;;;;;;;;;5091716;28;20110;-31
2023/09/07 09:25:22;;;;;;;1.30;0.50;;;;;;;;;;5091754;28;20141;-35
2023/09/07 09:27:49;;;;;;;1.05;0.60;;;;;;;;;;5091620;28;20506;-34
2023/09/07 09:30:16;;;;;;;1.67;0.80;;;;;;;;;;5091309;28;20157;-30
2023/09/07 09:32:47;;;;;;;1.52;0.70;;;;;;;;;;5082979;28;20036;-35
2023/09/07 09:35:20;;;;;;;3.25;0.80;;;;;;;;;;5090031;28;20036;-31
2023/09/07 09:37:50;;;;;;;3.55;0.77;;;;;;;;;;5091396;28;20508;-31
2023/09/07 09:40:17;;;;;;;2.15;0.80;;;;;;;;;;5089629;28;20057;-30
2023/09/07 09:42:45;;;;;;;4.53;0.73;;;;;;;;;;5091289;28;20110;-30
2023/09/07 09:45:12;;;;;;;10.45;1.27;;;;;;;;;;5090048;28;20035;-34
2023/09/07 09:47:40;;;;;;;3.90;0.95;;;;;;;;;;5089446;28;20164;-32
2023/09/07 09:50:08;;;;;;;3.65;0.73;;;;;;;;;;5089368;28;20117;-32
2023/09/07 09:52:36;;;;;;;3.72;0.90;;;;;;;;;;5090925;28;20040;-34
2023/09/07 09:55:07;;;;;;;1.42;0.73;;;;;;;;;;5087941;28;20031;-30
2023/09/07 09:57:37;;;;;;;2.45;0.70;;;;;;;;;;5089162;28;20027;-31
2023/09/07 10:02:57;;;;;;;3.53;0.60;;;;;;;;;;5081496;28;20044;-30
2023/09/07 10:05:25;;;;;;;5.68;0.88;;;;;;;;;;5088595;28;20393;-30
2023/09/07 10:07:52;;;;;;;4.80;0.70;;;;;;;;;;5090121;28;20058;-31
2023/09/07 10:10:20;;;;;;;5.65;0.80;;;;;;;;;;5084714;28;20085;-40
2023/09/07 10:12:55;;;;;;;4.05;0.70;;;;;;;;;;5089649;28;20036;-39
2023/09/07 10:15:26;;;;;;;3.42;1.13;;;;;;;;;;5092761;28;20082;-40
2023/09/07 10:18:09;;;;;;;3.55;0.80;;;;;;;;;;5094616;28;20036;-33
2023/09/07 10:20:54;;;;;;;4.45;0.95;;;;;;;;;;5093713;28;20055;-35
2023/09/07 10:23:21;;;;;;;3.95;0.98;;;;;;;;;;5090979;28;20039;-31
2023/09/07 10:25:52;;;;;;;2.17;0.88;;;;;;;;;;5093762;28;20108;-33
2023/09/07 10:28:26;;;;;;;8.35;1.25;;;;;;;;;;5091503;28;20040;-31
2023/09/07 10:31:03;;;;;;;3.05;0.80;;;;;;;;;;5093367;28;20043;-38
2023/09/07 10:33:31;;;;;;;7.57;1.20;;;;;;;;;;5092193;28;20081;-31
2023/09/07 10:35:59;;;;;;;26.30;2.20;;;;;;;;;;5091638;28;20095;-30
2023/09/07 10:38:26;;;;;;;4.75;1.15;;;;;;;;;;5093930;28;20634;-35
2023/09/07 10:41:00;;;;;;;9.95;1.15;;;;;;;;;;5079417;28;20060;-32
2023/09/07 10:43:30;;;;;;;6.38;1.20;;;;;;;;;;5091317;28;20089;-39
2023/09/07 10:45:58;;;;;;;3.05;0.70;;;;;;;;;;5091648;28;20043;-37
2023/09/07 10:48:26;;;;;;;2.40;0.85;;;;;;;;;;5093471;28;20504;-37
2023/09/07 10:50:53;;;;;;;1.95;0.60;;;;;;;;;;5094028;28;20036;-37
2023/09/07 10:53:31;;;;;;;5.75;1.15;;;;;;;;;;5093025;28;20028;-34
2023/09/07 10:55:59;;;;;;;7.80;1.45;;;;;;;;;;5090604;28;20101;-34
2023/09/07 10:58:31;;;;;;;2.15;0.80;;;;;;;;;;5094009;28;20035;-31
2023/09/07 11:00:59;;;;;;;1.30;0.65;;;;;;;;;;5091735;28;20063;-33
2023/09/07 11:03:29;;;;;;;3.05;1.08;;;;;;;;;;5092638;28;20031;-33
2023/09/07 11:06:09;;;;;;;3.08;0.77;;;;;;;;;;5089590;28;20028;-34
2023/09/07 11:08:36;;;;;;;4.10;1.00;;;;;;;;;;5092460;28;20456;-31
2023/09/07 11:11:05;;;;;;;2.28;0.70;;;;;;;;;;5091280;28;20036;-33
2023/09/07 11:13:32;;;;;;;2.08;0.63;;;;;;;;;;5092845;28;20516;-30
2023/09/07 11:16:00;;;;;;;4.47;0.82;;;;;;;;;;5093122;28;20054;-31
2023/09/07 11:18:27;;;;;;;4.72;0.80;;;;;;;;;;5093650;28;20466;-28
2023/09/07 11:20:54;;;;;;;2.65;0.98;;;;;;;;;;5085492;28;20047;-30
2023/09/07 11:23:25;;;;;;;3.72;0.82;;;;;;;;;;5094150;28;20036;-30
2023/09/07 11:25:52;;;;;;;5.88;0.90;;;;;;;;;;5082272;28;20044;-30
2023/09/07 11:28:22;;;;;;;2.58;0.90;;;;;;;;;;5073995;28;20029;-30
2023/09/07 11:30:53;;;;;;;4.95;0.73;;;;;;;;;;5073635;28;20039;-30
2023/09/07 11:33:20;;;;;;;8.85;1.20;;;;;;;;;;5073821;28;20490;-32
2023/09/07 11:35:47;;;;;;;2.50;0.70;;;;;;;;;;5073928;28;20029;-31
2023/09/07 11:38:15;;;;;;;0.73;0.60;;;;;;;;;;5073858;28;20028;-31
2023/09/07 11:40:45;;;;;;;8.88;1.10;;;;;;;;;;5073681;28;20115;-31
2023/09/07 11:43:13;;;;;;;8.25;1.10;;;;;;;;;;5073844;28;20025;-31
2023/09/07 11:45:41;;;;;;;4.03;0.65;;;;;;;;;;5073791;28;20478;-32
2023/09/07 11:48:08;;;;;;;3.60;1.05;;;;;;;;;;5073514;28;20041;-32
2023/09/07 11:50:36;;;;;;;4.47;0.93;;;;;;;;;;5073545;28;20032;-31
2023/09/07 11:53:03;;;;;;;4.35;0.95;;;;;;;;;;5073635;28;20025;-30
2023/09/07 11:55:30;;;;;;;4.07;0.73;;;;;;;;;;5073574;28;20112;-30
2023/09/07 11:57:57;;;;;;;3.63;0.80;;;;;;;;;;5073558;28;20483;-30
2023/09/07 12:00:24;;;;;;;5.78;0.75;;;;;;;;;;5073343;28;20528;-30
2023/09/07 12:02:51;;;;;;;12.25;1.13;;;;;;;;;;5073317;28;20083;-30
2023/09/07 12:05:19;;;;;;;3.28;0.82;;;;;;;;;;5073436;28;20032;-30
2023/09/07 12:07:46;;;;;;;3.55;1.05;;;;;;;;;;5086139;28;20046;-31
2023/09/07 12:10:13;;;;;;;2.97;0.80;;;;;;;;;;5092430;28;20161;-31
2023/09/07 12:12:41;;;;;;;3.20;0.65;;;;;;;;;;5092731;28;20028;-33
2023/09/07 12:15:09;;;;;;;4.38;1.33;;;;;;;;;;5093092;28;20024;-29
2023/09/07 12:17:36;;;;;;;4.90;1.20;;;;;;;;;;5092929;28;20024;-30
2023/09/07 12:20:04;;;;;;;2.83;1.00;;;;;;;;;;5093228;28;20786;-30
2023/09/07 12:22:34;;;;;;;5.18;1.30;;;;;;;;;;5093114;28;20374;-31
2023/09/07 12:25:01;;;;;;;3.55;0.93;;;;;;;;;;5093035;28;20478;-31
2023/09/07 12:27:28;;;;;;;3.08;1.00;;;;;;;;;;5091117;28;20468;-30
2023/09/07 12:29:54;;;;;;;8.00;0.80;;;;;;;;;;5093016;28;20085;-29
2023/09/07 12:32:21;;;;;;;4.43;1.00;;;;;;;;;;5093099;28;20504;-31
2023/09/07 12:34:53;;;;;;;5.15;1.00;;;;;;;;;;5093156;28;20364;-32
2023/09/07 12:37:23;;;;;;;5.57;1.20;;;;;;;;;;5092542;28;20474;-33
2023/09/07 12:39:53;;;;;;;8.07;1.23;;;;;;;;;;5092634;28;20063;-31
2023/09/07 12:42:19;;;;;;;11.50;1.20;;;;;;;;;;5092495;28;20028;-31
2023/09/07 12:44:46;;;;;;;6.43;1.20;;;;;;;;;;5092565;28;20101;-33
2023/09/07 12:47:13;;;;;;;5.07;0.90;;;;;;;;;;5092551;28;20645;-32
2023/09/07 12:49:41;;;;;;;8.20;1.20;;;;;;;;;;5092741;28;20020;-31
2023/09/07 12:52:10;;;;;;;5.15;1.02;;;;;;;;;;5092617;28;20028;-32
2023/09/07 12:54:37;;;;;;;3.88;0.98;;;;;;;;;;5075126;28;20517;-32
2023/09/07 12:57:05;;;;;;;2.15;0.75;;;;;;;;;;5092659;28;20127;-31
2023/09/07 12:59:32;;;;;;;4.45;1.10;;;;;;;;;;5092499;28;20077;-32
2023/09/07 13:01:59;;;;;;;2.80;1.10;;;;;;;;;;5092588;28;20474;-34
2023/09/07 13:04:26;;;;;;;4.13;0.80;;;;;;;;;;5074274;28;20028;-32
2023/09/07 13:06:53;;;;;;;6.03;1.25;;;;;;;;;;5092444;28;20028;-31
2023/09/07 13:09:19;;;;;;;5.43;1.00;;;;;;;;;;5092381;28;20032;-34
2023/09/07 13:11:46;;;;;;;4.30;1.25;;;;;;;;;;5092464;28;20020;-33
2023/09/07 13:14:13;;;;;;;18.92;1.35;;;;;;;;;;5092354;28;20509;-33
2023/09/07 13:16:40;;;;;;;4.45;0.90;;;;;;;;;;5092357;28;20035;-32
2023/09/07 13:19:07;;;;;;;3.22;0.93;;;;;;;;;;5092179;28;20539;-34
2023/09/07 13:21:34;;;;;;;3.20;0.75;;;;;;;;;;5092086;28;20050;-32
2023/09/07 13:24:01;;;;;;;4.82;1.10;;;;;;;;;;5092177;28;20366;-32
2023/09/07 13:26:28;;;;;;;4.55;0.98;;;;;;;;;;5092092;28;20028;-31
2023/09/07 13:28:55;;;;;;;2.45;1.15;;;;;;;;;;5091834;28;20035;-32
2023/09/07 13:31:22;;;;;;;3.25;1.02;;;;;;;;;;5091953;28;20024;-32
2023/09/07 13:33:50;;;;;;;10.85;1.13;;;;;;;;;;5083626;28;20052;-34
2023/09/07 13:36:17;;;;;;;6.00;1.02;;;;;;;;;;5091952;28;20449;-34
2023/09/07 13:38:45;;;;;;;2.70;1.17;;;;;;;;;;5091909;28;20040;-31
2023/09/07 13:41:12;;;;;;;2.25;0.80;;;;;;;;;;5091933;28;20035;-32
2023/09/07 13:43:39;;;;;;;4.60;1.10;;;;;;;;;;5091967;28;20028;-31
2023/09/07 13:46:06;;;;;;;1.80;0.90;;;;;;;;;;5091782;28;20028;-32
2023/09/07 13:48:33;;;;;;;2.78;0.98;;;;;;;;;;5090824;28;20088;-33
2023/09/07 13:51:00;;;;;;;2.63;1.27;;;;;;;;;;5091744;28;20040;-31
2023/09/07 13:53:27;;;;;;;1.65;0.88;;;;;;;;;;5091769;28;20107;-32
2023/09/07 13:55:54;;;;;;;7.53;1.05;;;;;;;;;;5091677;28;20027;-31
2023/09/07 13:58:21;;;;;;;1.95;1.00;;;;;;;;;;5091592;28;20027;-31
2023/09/07 14:00:48;;;;;;;2.60;0.77;;;;;;;;;;5091659;28;20027;-32
2023/09/07 14:03:15;;;;;;;5.03;0.98;;;;;;;;;;5091694;28;20028;-31
2023/09/07 14:05:42;;;;;;;11.38;1.23;;;;;;;;;;5091681;28;20028;-32
2023/09/07 14:08:09;;;;;;;3.22;1.08;;;;;;;;;;5091655;28;20032;-32
2023/09/07 14:10:36;;;;;;;9.40;1.25;;;;;;;;;;5091600;28;20474;-34
2023/09/07 14:13:03;;;;;;;2.03;0.95;;;;;;;;;;5091623;28;20068;-31
2023/09/07 14:15:30;;;;;;;3.53;1.33;;;;;;;;;;5091612;28;20028;-33
2023/09/07 14:17:57;;;;;;;1.98;0.80;;;;;;;;;;5091239;28;20482;-31
2023/09/07 14:20:25;;;;;;;6.63;1.20;;;;;;;;;;5091435;28;20073;-32
2023/09/07 14:22:53;;;;;;;8.60;1.50;;;;;;;;;;5091430;28;20079;-33
2023/09/07 14:25:20;;;;;;;1.55;0.77;;;;;;;;;;5091248;28;20394;-32
2023/09/07 14:27:47;;;;;;;6.53;1.48;;;;;;;;;;5091426;28;20032;-31
2023/09/07 14:30:14;;;;;;;10.02;1.38;;;;;;;;;;5091378;28;20094;-33
2023/09/07 14:32:41;;;;;;;9.30;1.23;;;;;;;;;;5091309;28;20032;-31
2023/09/07 14:35:09;;;;;;;1.52;0.95;;;;;;;;;;5091364;28;20543;-34
2023/09/07 14:37:36;;;;;;;12.32;1.77;;;;;;;;;;5091417;28;20081;-31
2023/09/07 14:40:03;;;;;;;2.65;0.95;;;;;;;;;;5091264;28;20107;-33
2023/09/07 14:42:30;;;;;;;3.90;1.00;;;;;;;;;;5091227;28;20024;-33
2023/09/07 14:44:59;;;;;;;2.67;1.10;;;;;;;;;;5091275;28;20030;-33
2023/09/07 14:47:26;;;;;;;4.40;0.90;;;;;;;;;;5091010;28;20051;-33